Oxford, Canada
Current Conditions -  °F | °C
As of 9:00 AM on Sunday 23 Nov 2014 (Local Time) from CYQM Reporting Station
Scattered Clouds Scattered Clouds  
Wind Chill: -5°   Ceiling: Unl
Heat Index:   Visibility: 15mi
Dew Point: -3°   Wind: 10mph
Humidity: 80%   Direction: 230°SW
Pressure: 29.93"   Gusts: NA
Location:  45.73°N, 63.87°W
Report Text: CYQM 231300Z 23009KT 15SM SCT220 M00/M03 A2993 RMK CI3 SLP139
Loading
Personal Weather Stations






























Interactive Weather Map New forecast layout! Learn more

10-Day Weather Forecast

Advertisements
Track Severe Weather on mobile